Terminal Aerodrome Forecast
Issued by NWS

Home | Current Version | Previous Version | Text Only | Print | Product List | Glossary On
Versions: 1 2 3 4 5 6 7 8 9 10 11 12 13 14 15 16 17 18 19 20 21 22 23
135
FTUS46 KSEW 112116 AAB
TAFOLM
TAF AMD
KOLM 112116Z 1121/1218 00000KT 5SM -RA BR OVC005
     FM120900 20003KT 3SM -RA BR BKN005 OVC025
     FM121400 20003KT 3SM -RA BR OVC012=

USA.gov is the U.S. government's official web portal to all federal, state and local government web resources and services.